Time;durP1;ratioP1;P1;durP2;ratioP2;P2;SDS_P1;SDS_P2;PMS_P1;PMS_P2;Temp;Humidity;BMP_temperature;BMP_pressure;BME280_temperature;BME280_humidity;BME280_pressure;Samples;Min_cycle;Max_cycle;Signal;HPM_P1;HPM_P2
2021/05/14 00:00:50;;;;;;;11.23;8.93;;;12.20;90.90;;;;;;5050752;28;20025;-89
2021/05/14 00:03:16;;;;;;;11.32;8.65;;;12.20;90.90;;;;;;5057947;28;20021;-87
2021/05/14 00:05:42;;;;;;;13.35;9.57;;;12.20;90.90;;;;;;5058510;28;20021;-87
2021/05/14 00:08:08;;;;;;;15.30;9.13;;;12.20;91.00;;;;;;5043954;28;20025;-88
2021/05/14 00:10:38;;;;;;;12.10;8.63;;;12.20;91.00;;;;;;5054317;28;20478;-90
2021/05/14 00:13:05;;;;;;;10.32;8.23;;;12.20;91.00;;;;;;5045069;28;20025;-88
2021/05/14 00:15:31;;;;;;;11.98;9.73;;;12.10;91.00;;;;;;5050948;28;20048;-89
2021/05/14 00:17:58;;;;;;;11.30;9.75;;;12.10;91.00;;;;;;5050011;28;20029;-90
2021/05/14 00:20:24;;;;;;;12.77;9.27;;;12.10;91.00;;;;;;5065238;28;20025;-87
2021/05/14 00:22:50;;;;;;;20.73;11.57;;;12.10;91.10;;;;;;5069854;28;20032;-89
2021/05/14 00:25:16;;;;;;;15.70;9.30;;;12.00;91.10;;;;;;5057632;28;20033;-88
2021/05/14 00:27:41;;;;;;;12.10;9.55;;;12.00;91.10;;;;;;5051955;28;20080;-89
2021/05/14 00:30:09;;;;;;;23.00;11.68;;;12.10;91.20;;;;;;5051704;28;20104;-91
2021/05/14 00:32:35;;;;;;;;;;;12.00;91.20;;;;;;5057449;28;20051;-88
2021/05/14 00:35:01;;;;;;;13.38;9.45;;;12.00;90.90;;;;;;5059548;28;19911;-88
2021/05/14 00:37:27;;;;;;;14.73;9.45;;;12.00;91.30;;;;;;5063533;28;20074;-89
2021/05/14 00:39:54;;;;;;;17.55;10.82;;;12.00;91.30;;;;;;5049302;28;20025;-89
2021/05/14 00:42:20;;;;;;;18.60;10.15;;;12.00;91.30;;;;;;5057779;28;20025;-88
2021/05/14 00:44:46;;;;;;;19.13;10.85;;;12.00;91.30;;;;;;5043164;28;20146;-89
2021/05/14 00:47:15;;;;;;;16.15;9.30;;;12.10;91.20;;;;;;5056914;28;20060;-90
2021/05/14 00:49:45;;;;;;;22.95;11.80;;;12.10;91.30;;;;;;5058252;28;20017;-91
2021/05/14 00:52:16;;;;;;;16.15;11.50;;;12.00;91.20;;;;;;5063677;28;20045;-89
2021/05/14 00:54:45;;;;;;;14.20;11.43;;;12.00;91.30;;;;;;5065750;28;20017;-90
2021/05/14 00:57:12;;;;;;;15.70;10.68;;;12.00;91.40;;;;;;5058165;28;20075;-89
2021/05/14 00:59:39;;;;;;;15.30;12.52;;;12.00;91.40;;;;;;5038283;28;20023;-91
2021/05/14 01:02:07;;;;;;;21.95;13.05;;;11.90;91.40;;;;;;5038590;28;20029;-91
2021/05/14 01:04:33;;;;;;;18.95;12.85;;;11.90;91.60;;;;;;5027573;28;20104;-89
2021/05/14 01:07:00;;;;;;;17.80;12.70;;;11.90;91.60;;;;;;5056613;28;20067;-89
2021/05/14 01:09:26;;;;;;;15.63;13.48;;;11.90;91.70;;;;;;5055518;28;20037;-92
2021/05/14 01:11:55;;;;;;;17.65;14.52;;;11.80;91.70;;;;;;5055053;28;20071;-89
2021/05/14 01:14:21;;;;;;;21.02;15.38;;;11.80;91.90;;;;;;5055002;28;20497;-88
2021/05/14 01:16:47;;;;;;;23.83;14.68;;;11.80;92.00;;;;;;5054932;28;20494;-89
2021/05/14 01:19:13;;;;;;;26.90;15.65;;;11.70;92.00;;;;;;5055543;28;20029;-89
2021/05/14 01:21:39;;;;;;;18.40;15.65;;;11.70;92.10;;;;;;5040846;28;20026;-88
2021/05/14 01:24:06;;;;;;;27.08;17.48;;;11.70;92.20;;;;;;5054886;28;20024;-88
2021/05/14 01:26:32;;;;;;;21.43;16.57;;;11.70;92.40;;;;;;5054597;28;20048;-87
2021/05/14 01:28:59;;;;;;;20.23;15.65;;;11.60;92.40;;;;;;5055966;28;20026;-90
2021/05/14 01:31:25;;;;;;;22.73;17.55;;;11.70;92.50;;;;;;5058725;28;20052;-88
2021/05/14 01:33:51;;;;;;;25.60;17.52;;;11.60;92.50;;;;;;5074376;28;20032;-88
2021/05/14 01:36:18;;;;;;;25.48;17.05;;;11.60;92.50;;;;;;5065088;28;20455;-87
2021/05/14 01:38:45;;;;;;;23.50;17.50;;;11.70;92.60;;;;;;5062528;28;20025;-88
2021/05/14 01:41:14;;;;;;;19.92;17.65;;;11.60;92.60;;;;;;5051766;28;20029;-82
2021/05/14 01:43:41;;;;;;;21.60;16.42;;;11.70;92.60;;;;;;5074042;28;20026;-88
2021/05/14 01:46:07;;;;;;;22.92;18.48;;;11.60;92.60;;;;;;5080806;28;20028;-83
2021/05/14 01:48:33;;;;;;;27.45;18.75;;;11.70;92.70;;;;;;5081602;28;20017;-82
2021/05/14 01:51:20;;;;;;;23.38;16.90;;;11.60;92.70;;;;;;5081021;28;20040;-89
2021/05/14 01:53:46;;;;;;;24.02;17.75;;;11.60;92.70;;;;;;5074805;28;20056;-87
2021/05/14 01:56:12;;;;;;;23.75;16.65;;;11.60;92.80;;;;;;5066852;28;20027;-89
2021/05/14 01:58:38;;;;;;;27.15;17.60;;;11.60;92.80;;;;;;5062789;28;20402;-89
2021/05/14 02:01:04;;;;;;;23.50;17.42;;;11.70;92.80;;;;;;5059199;28;20025;-88
2021/05/14 02:03:31;;;;;;;25.00;18.23;;;11.70;92.70;;;;;;5057916;28;20025;-90
2021/05/14 02:05:56;;;;;;;24.45;17.00;;;11.70;92.70;;;;;;5058507;28;20021;-88
2021/05/14 02:08:22;;;;;;;19.50;17.10;;;11.70;92.60;;;;;;5062570;28;20051;-91
2021/05/14 02:10:49;;;;;;;25.20;17.65;;;11.80;92.60;;;;;;5058410;28;20490;-88
2021/05/14 02:13:15;;;;;;;24.95;17.92;;;11.80;92.50;;;;;;5026570;28;20029;-89
2021/05/14 02:15:41;;;;;;;21.17;16.65;;;11.90;92.40;;;;;;5040860;28;20017;-88
2021/05/14 02:18:07;;;;;;;23.20;18.63;;;11.90;92.30;;;;;;5057579;28;20029;-89
2021/05/14 02:20:34;;;;;;;27.27;16.65;;;12.00;92.20;;;;;;5056887;28;20017;-89
2021/05/14 02:23:00;;;;;;;23.33;16.10;;;12.00;92.10;;;;;;5058616;28;20120;-88
2021/05/14 02:25:25;;;;;;;24.10;17.10;;;12.10;91.90;;;;;;5057744;28;20021;-91
2021/05/14 02:27:51;;;;;;;21.73;17.00;;;12.10;91.80;;;;;;5041398;28;20028;-89
2021/05/14 02:30:18;;;;;;;19.73;17.20;;;12.20;91.60;;;;;;5058663;28;20029;-88
2021/05/14 02:32:44;;;;;;;22.95;17.13;;;12.20;91.50;;;;;;5040205;28;20120;-88
2021/05/14 02:35:11;;;;;;;22.45;17.00;;;12.30;91.40;;;;;;5046965;28;20026;-89
2021/05/14 02:37:37;;;;;;;19.55;16.27;;;12.40;91.30;;;;;;5061177;28;20045;-87
2021/05/14 02:40:04;;;;;;;24.17;17.42;;;12.40;91.10;;;;;;5041831;28;20025;-89
2021/05/14 02:42:30;;;;;;;22.67;16.50;;;12.50;91.00;;;;;;5057052;28;20025;-88
2021/05/14 02:44:57;;;;;;;18.65;15.63;;;12.60;90.90;;;;;;5047335;28;20075;-88
2021/05/14 02:47:23;;;;;;;21.52;16.70;;;12.70;90.70;;;;;;5057610;28;20037;-88
2021/05/14 02:49:49;;;;;;;20.88;16.00;;;12.70;90.40;;;;;;5040090;28;20021;-89
2021/05/14 02:52:15;;;;;;;18.20;15.30;;;12.80;90.30;;;;;;5056636;28;20048;-87
2021/05/14 02:54:40;;;;;;;20.23;13.80;;;13.00;90.00;;;;;;5039389;28;20029;-88
2021/05/14 02:57:07;;;;;;;22.85;15.25;;;13.00;89.70;;;;;;5057063;28;20083;-90
2021/05/14 02:59:34;;;;;;;20.17;14.00;;;13.00;89.30;;;;;;5057018;28;20533;-89
2021/05/14 03:02:00;;;;;;;24.17;14.27;;;13.00;89.20;;;;;;5046527;28;20041;-88
2021/05/14 03:04:28;;;;;;;17.23;13.20;;;13.10;89.00;;;;;;5049420;28;20017;-88
2021/05/14 03:06:54;;;;;;;23.17;14.90;;;13.20;88.40;;;;;;5043193;28;20052;-88
2021/05/14 03:09:20;;;;;;;22.25;13.00;;;13.30;88.10;;;;;;5060334;28;20074;-87
2021/05/14 03:11:45;;;;;;;16.15;12.55;;;13.30;87.90;;;;;;5059608;28;20514;-88
2021/05/14 03:14:11;;;;;;;18.90;13.68;;;13.40;87.50;;;;;;5061886;28;20448;-89
2021/05/14 03:16:37;;;;;;;18.10;12.82;;;13.50;87.20;;;;;;5046649;28;20052;-88
2021/05/14 03:19:04;;;;;;;18.90;13.50;;;13.50;87.00;;;;;;5041418;28;20108;-89
2021/05/14 03:21:31;;;;;;;23.52;13.15;;;13.60;86.50;;;;;;5040846;28;20055;-89
2021/05/14 03:24:00;;;;;;;15.43;12.82;;;13.70;86.30;;;;;;5058630;28;20078;-89
2021/05/14 03:26:28;;;;;;;16.13;12.30;;;13.70;85.80;;;;;;5046857;28;20049;-88
2021/05/14 03:28:54;;;;;;;18.00;12.57;;;13.70;85.70;;;;;;5044110;28;20108;-89
2021/05/14 03:31:20;;;;;;;18.95;12.60;;;13.80;85.50;;;;;;5073100;28;20099;-88
2021/05/14 03:33:46;;;;;;;18.52;12.68;;;13.80;85.40;;;;;;5070426;28;20107;-88
2021/05/14 03:36:13;;;;;;;15.68;11.93;;;13.80;85.40;;;;;;5074147;28;20035;-89
2021/05/14 03:38:39;;;;;;;13.98;11.57;;;13.90;85.10;;;;;;5067894;28;20470;-88
2021/05/14 03:42:03;;;;;;;13.55;10.40;;;14.00;85.00;;;;;;5046402;28;20106;-89
2021/05/14 03:43:52;;;;;;;14.32;12.50;;;14.10;84.40;;;;;;5026669;28;20038;-89
2021/05/14 03:46:18;;;;;;;13.70;11.80;;;14.10;84.10;;;;;;5051479;28;20076;-87
2021/05/14 03:48:44;;;;;;;27.88;13.13;;;14.10;83.90;;;;;;5036165;28;20029;-89
2021/05/14 03:51:10;;;;;;;16.80;11.35;;;14.20;83.60;;;;;;5062225;28;20047;-88
2021/05/14 03:53:35;;;;;;;16.23;13.05;;;14.30;83.10;;;;;;5074043;28;20005;-88
2021/05/14 03:56:01;;;;;;;17.83;11.32;;;14.40;82.90;;;;;;5078176;28;20033;-90
2021/05/14 03:58:27;;;;;;;15.07;10.90;;;14.50;82.30;;;;;;5074527;28;20025;-88
2021/05/14 04:00:53;;;;;;;13.63;10.32;;;14.60;82.00;;;;;;5058217;28;20090;-90
2021/05/14 04:03:21;;;;;;;18.33;11.20;;;14.70;81.60;;;;;;5054623;28;20028;-89
2021/05/14 04:05:49;;;;;;;18.98;12.27;;;14.80;81.50;;;;;;5018377;28;20025;-91
2021/05/14 04:08:15;;;;;;;16.58;11.90;;;14.90;81.40;;;;;;5052719;28;20032;-89
2021/05/14 04:16:00;;;;;;;13.35;10.48;;;15.40;79.90;;;;;;5046804;28;20028;-88
2021/05/14 04:18:26;;;;;;;15.70;11.88;;;15.60;79.20;;;;;;5024492;28;20021;-88
2021/05/14 04:20:51;;;;;;;19.45;10.75;;;15.70;78.30;;;;;;5056223;28;20449;-89
2021/05/14 04:23:17;;;;;;;13.98;11.40;;;15.80;77.40;;;;;;5056308;28;20087;-88
2021/05/14 04:25:44;;;;;;;14.57;9.55;;;16.00;76.60;;;;;;5059640;28;20041;-87
2021/05/14 04:28:10;;;;;;;12.10;9.63;;;16.10;76.30;;;;;;5058924;28;20033;-89
2021/05/14 04:30:38;;;;;;;15.57;10.55;;;16.30;76.30;;;;;;5041091;28;20086;-90
2021/05/14 04:33:05;;;;;;;15.25;10.40;;;16.50;75.20;;;;;;5038978;28;20033;-91
2021/05/14 04:35:32;;;;;;;15.52;11.20;;;16.70;74.70;;;;;;5042782;28;20021;-91
2021/05/14 04:37:58;;;;;;;16.88;11.45;;;16.90;74.00;;;;;;5034321;28;20083;-91
2021/05/14 04:40:24;;;;;;;17.23;10.98;;;17.10;73.20;;;;;;5059976;28;20092;-89
2021/05/14 04:42:51;;;;;;;15.05;11.68;;;17.20;72.50;;;;;;5056168;28;20061;-90
2021/05/14 04:45:17;;;;;;;15.87;12.07;;;17.30;71.50;;;;;;5040348;28;20450;-91
2021/05/14 04:47:43;;;;;;;14.30;11.68;;;17.30;71.80;;;;;;5038106;28;20505;-89
2021/05/14 04:50:11;;;;;;;16.70;10.38;;;17.30;71.80;;;;;;5058816;28;20024;-90
2021/05/14 04:52:37;;;;;;;17.90;11.75;;;17.30;72.00;;;;;;5054570;28;20025;-85
2021/05/14 04:55:04;;;;;;;12.15;10.88;;;17.60;71.20;;;;;;5054333;28;20021;-86
2021/05/14 04:57:30;;;;;;;22.95;12.80;;;18.40;69.10;;;;;;5036107;28;20143;-87
2021/05/14 04:59:56;;;;;;;18.90;12.15;;;19.20;67.10;;;;;;5054458;28;20086;-85
2021/05/14 05:02:22;;;;;;;17.02;11.38;;;20.00;64.80;;;;;;5048628;28;20047;-87
2021/05/14 05:04:48;;;;;;;19.10;11.35;;;20.70;61.30;;;;;;5056196;28;20027;-86
2021/05/14 05:07:13;;;;;;;19.02;11.05;;;21.30;59.30;;;;;;5056962;28;20029;-87
2021/05/14 05:09:40;;;;;;;17.70;10.55;;;21.50;57.70;;;;;;5059606;28;20085;-87
2021/05/14 05:12:07;;;;;;;16.52;10.27;;;21.50;56.40;;;;;;5041841;28;20029;-88
2021/05/14 05:14:32;;;;;;;15.07;9.63;;;21.40;56.50;;;;;;5058008;28;20020;-87
2021/05/14 05:16:58;;;;;;;14.18;9.75;;;21.90;55.90;;;;;;5058975;28;20084;-85
2021/05/14 05:19:24;;;;;;;18.33;10.35;;;22.60;54.80;;;;;;5062859;28;20024;-85
2021/05/14 05:21:50;;;;;;;15.82;9.82;;;23.20;52.80;;;;;;5039846;28;20144;-86
2021/05/14 05:24:28;;;;;;;18.08;9.82;;;23.70;51.70;;;;;;5049192;28;20433;-87
2021/05/14 05:26:54;;;;;;;13.88;9.50;;;24.50;49.70;;;;;;5050185;28;20053;-86
2021/05/14 05:29:19;;;;;;;16.65;8.40;;;25.30;48.30;;;;;;5047952;28;20032;-89
2021/05/14 05:31:45;;;;;;;18.92;8.18;;;25.70;46.70;;;;;;5050350;28;20036;-86
2021/05/14 05:34:11;;;;;;;15.32;9.32;;;26.10;45.20;;;;;;5047280;28;20028;-88
2021/05/14 05:36:37;;;;;;;14.70;8.63;;;26.70;44.70;;;;;;5072852;28;20029;-89
2021/05/14 05:39:03;;;;;;;11.65;8.75;;;26.80;43.60;;;;;;5074880;28;20009;-91
2021/05/14 05:41:29;;;;;;;15.68;9.63;;;27.10;43.30;;;;;;5057814;28;20344;-89
2021/05/14 05:43:55;;;;;;;17.48;8.60;;;27.70;42.50;;;;;;5048917;28;20031;-87
2021/05/14 05:46:21;;;;;;;13.70;7.57;;;28.40;41.40;;;;;;5053065;28;20025;-89
2021/05/14 05:48:49;;;;;;;7.87;6.30;;;28.40;40.00;;;;;;5060285;28;20033;-88
2021/05/14 05:51:15;;;;;;;10.25;6.28;;;28.00;39.30;;;;;;5060666;28;20358;-90
2021/05/14 05:53:43;;;;;;;9.43;5.18;;;27.30;40.30;;;;;;5059674;28;20025;-87
2021/05/14 05:56:09;;;;;;;;;;;27.50;40.20;;;;;;5054397;28;20254;-88
2021/05/14 05:58:35;;;;;;;8.02;5.28;;;27.70;42.00;;;;;;5064207;28;19927;-87
2021/05/14 06:01:02;;;;;;;10.80;5.28;;;28.10;39.70;;;;;;5072089;28;20203;-86
2021/05/14 06:03:29;;;;;;;8.98;5.72;;;29.00;39.00;;;;;;5070769;28;20041;-89
2021/05/14 06:05:55;;;;;;;12.80;5.72;;;30.00;37.40;;;;;;5065139;28;20047;-88
2021/05/14 06:08:21;;;;;;;12.98;4.93;;;30.80;35.90;;;;;;5065187;28;20025;-88
2021/05/14 06:10:51;;;;;;;6.88;4.60;;;31.20;34.80;;;;;;5064062;28;20040;-87
2021/05/14 06:13:18;;;;;;;8.52;5.28;;;31.50;34.70;;;;;;5049833;28;20390;-90
2021/05/14 06:15:44;;;;;;;7.68;5.18;;;31.90;33.90;;;;;;5058998;28;20184;-90
2021/05/14 06:18:15;;;;;;;10.67;5.17;;;32.40;33.60;;;;;;5058866;28;20498;-90
2021/05/14 06:20:45;;;;;;;12.55;4.40;;;33.00;32.70;;;;;;5052782;28;20041;-90
2021/05/14 06:23:11;;;;;;;10.10;5.07;;;33.40;32.10;;;;;;5060000;28;20025;-88
2021/05/14 06:25:39;;;;;;;15.68;7.50;;;34.10;30.90;;;;;;5039676;28;20017;-93
2021/05/14 06:28:06;;;;;;;8.77;4.65;;;34.30;31.00;;;;;;5056362;28;20025;-91
2021/05/14 06:30:32;;;;;;;;;;;34.70;30.20;;;;;;5045089;28;20442;-90
2021/05/14 06:32:58;;;;;;;7.10;4.85;;;34.30;31.40;;;;;;5028815;28;19905;-87
2021/05/14 06:35:24;;;;;;;10.33;4.50;;;33.70;30.40;;;;;;5054096;28;20056;-87
2021/05/14 06:37:51;;;;;;;11.73;5.57;;;33.90;30.80;;;;;;5061401;28;20028;-86
2021/05/14 06:40:17;;;;;;;7.05;4.05;;;34.20;30.30;;;;;;5061885;28;20021;-88
2021/05/14 06:42:43;;;;;;;11.02;4.35;;;33.50;30.10;;;;;;5055101;28;20033;-87
2021/05/14 06:45:10;;;;;;;8.80;5.67;;;32.60;31.00;;;;;;5054459;28;20397;-86
2021/05/14 06:47:36;;;;;;;;;;;32.20;32.00;;;;;;5056819;28;20056;-88
2021/05/14 06:50:04;;;;;;;9.15;5.53;;;32.40;33.50;;;;;;5057605;28;19912;-87
2021/05/14 06:52:34;;;;;;;7.45;5.07;;;32.90;32.10;;;;;;5056386;28;20032;-87
2021/05/14 06:55:00;;;;;;;8.35;5.43;;;33.00;31.60;;;;;;5055571;28;20063;-85
2021/05/14 06:57:26;;;;;;;11.65;5.95;;;32.50;31.40;;;;;;5056012;28;20566;-87
2021/05/14 06:59:52;;;;;;;13.53;4.93;;;31.90;32.60;;;;;;5038582;28;20061;-86
2021/05/14 07:02:18;;;;;;;9.57;5.63;;;32.40;32.60;;;;;;5037835;28;20040;-87
2021/05/14 07:04:43;;;;;;;9.53;4.63;;;31.80;32.20;;;;;;5042253;28;20541;-86
2021/05/14 07:07:09;;;;;;;9.90;5.87;;;30.80;33.30;;;;;;5056078;28;20036;-86
2021/05/14 07:09:35;;;;;;;9.23;5.70;;;30.60;34.10;;;;;;5038546;28;20189;-84
2021/05/14 07:12:02;;;;;;;13.83;9.17;;;31.40;34.00;;;;;;5056557;28;20028;-86
2021/05/14 07:14:28;;;;;;;11.18;4.85;;;32.30;33.10;;;;;;5038844;28;20171;-86
2021/05/14 07:16:54;;;;;;;12.60;6.10;;;32.90;32.30;;;;;;5056910;28;20048;-85
2021/05/14 07:19:20;;;;;;;11.30;5.97;;;33.90;31.60;;;;;;5056771;28;20583;-84
2021/05/14 07:21:46;;;;;;;10.73;4.90;;;34.20;30.50;;;;;;5056906;28;20159;-84
2021/05/14 07:24:12;;;;;;;14.03;8.57;;;33.50;30.70;;;;;;5059179;28;20075;-87
2021/05/14 07:26:38;;;;;;;13.55;5.82;;;33.40;31.50;;;;;;5056340;28;20087;-85
2021/05/14 07:29:06;;;;;;;6.17;3.93;;;34.00;31.70;;;;;;5056029;28;20025;-87
2021/05/14 07:31:31;;;;;;;8.88;4.03;;;35.00;30.30;;;;;;5056038;28;20025;-86
2021/05/14 07:33:57;;;;;;;6.63;4.37;;;35.70;29.80;;;;;;5055930;28;20088;-86
2021/05/14 07:36:26;;;;;;;6.15;3.65;;;36.80;29.30;;;;;;5048477;28;20490;-87
2021/05/14 07:38:53;;;;;;;15.05;6.03;;;36.60;28.60;;;;;;5055127;28;20029;-86
2021/05/14 07:41:19;;;;;;;10.52;4.63;;;35.40;28.90;;;;;;5069155;28;20115;-88
2021/05/14 07:43:45;;;;;;;6.35;4.10;;;34.30;30.00;;;;;;5059862;28;20017;-84
2021/05/14 07:46:11;;;;;;;9.80;4.90;;;33.50;30.80;;;;;;5057392;28;20535;-86
2021/05/14 07:48:37;;;;;;;10.40;4.30;;;32.90;31.80;;;;;;5056280;28;20466;-86
2021/05/14 07:51:04;;;;;;;6.73;3.80;;;32.50;32.30;;;;;;5056094;28;20406;-85
2021/05/14 07:53:30;;;;;;;4.28;3.47;;;32.10;32.50;;;;;;5055413;28;20031;-87
2021/05/14 07:55:55;;;;;;;7.32;3.35;;;30.90;32.50;;;;;;5042065;28;20029;-86
2021/05/14 07:58:22;;;;;;;4.28;3.13;;;30.00;34.40;;;;;;5056616;28;20074;-87
2021/05/14 08:00:49;;;;;;;;;;;30.00;34.50;;;;;;5028323;28;20120;-83
2021/05/14 08:03:17;;;;;;;19.35;12.35;;;29.70;34.80;;;;;;5069337;28;19904;-85
2021/05/14 08:05:46;;;;;;;5.30;3.85;;;30.10;35.50;;;;;;5043239;28;20025;-88
2021/05/14 08:08:14;;;;;;;8.50;3.22;;;30.90;34.70;;;;;;5039571;28;20021;-85
2021/05/14 08:10:40;;;;;;;6.93;3.60;;;32.50;33.20;;;;;;5019802;28;20029;-87
2021/05/14 08:13:06;;;;;;;6.57;2.78;;;34.40;31.60;;;;;;5020989;28;20117;-85
2021/05/14 08:15:32;;;;;;;9.23;2.95;;;35.80;30.20;;;;;;5065968;28;20032;-86
2021/05/14 08:17:58;;;;;;;4.00;3.10;;;37.00;29.10;;;;;;5050847;28;20402;-86
2021/05/14 08:20:25;;;;;;;6.60;2.72;;;37.20;28.50;;;;;;5061539;28;20074;-85
2021/05/14 08:22:51;;;;;;;9.05;3.67;;;36.60;28.50;;;;;;5057101;28;20013;-85
2021/05/14 08:25:18;;;;;;;5.75;3.22;;;35.60;29.20;;;;;;5037244;28;20028;-86
2021/05/14 08:27:44;;;;;;;4.35;3.55;;;35.40;29.40;;;;;;5056176;28;20497;-87
2021/05/14 08:30:12;;;;;;;8.30;2.85;;;36.10;29.60;;;;;;5039391;28;20025;-84
2021/05/14 08:32:38;;;;;;;7.65;2.92;;;36.70;28.80;;;;;;5049296;28;20025;-86
2021/05/14 08:35:06;;;;;;;5.55;2.95;;;37.70;28.60;;;;;;5047744;28;20029;-85
2021/05/14 08:37:33;;;;;;;5.95;3.10;;;38.60;28.00;;;;;;5050294;28;20021;-86
2021/05/14 08:39:59;;;;;;;10.60;3.88;;;38.50;27.60;;;;;;5026322;28;20479;-86
2021/05/14 08:42:25;;;;;;;8.45;3.20;;;38.90;27.80;;;;;;5050702;28;20091;-86
2021/05/14 08:44:54;;;;;;;7.22;3.20;;;39.00;27.60;;;;;;5054831;28;20091;-86
2021/05/14 08:47:21;;;;;;;6.65;3.55;;;37.80;27.90;;;;;;5036671;28;20032;-85
2021/05/14 08:49:48;;;;;;;7.68;3.35;;;36.20;28.90;;;;;;5055409;28;20017;-86
2021/05/14 08:52:16;;;;;;;7.43;4.00;;;34.30;30.20;;;;;;5037309;28;20040;-85
2021/05/14 08:54:44;;;;;;;5.85;3.00;;;32.90;32.00;;;;;;5058859;28;20033;-87
2021/05/14 08:57:11;;;;;;;5.55;3.83;;;31.90;33.40;;;;;;5059810;28;20028;-85
2021/05/14 08:59:38;;;;;;;10.82;4.25;;;31.00;34.20;;;;;;5057079;28;20017;-87
2021/05/14 09:02:04;;;;;;;8.13;4.18;;;30.00;35.70;;;;;;5056426;28;20032;-85
2021/05/14 09:04:33;;;;;;;9.00;4.45;;;29.20;37.20;;;;;;5043005;28;20029;-85
2021/05/14 09:07:00;;;;;;;9.65;4.60;;;28.60;37.80;;;;;;5052854;28;20021;-84
2021/05/14 09:09:26;;;;;;;14.10;7.85;;;28.00;39.90;;;;;;5053030;28;20035;-84
2021/05/14 09:11:52;;;;;;;9.38;4.75;;;28.00;39.50;;;;;;5035407;28;20029;-86
2021/05/14 09:14:36;;;;;;;6.37;4.07;;;28.80;39.70;;;;;;5055312;28;20042;-86
2021/05/14 09:17:13;;;;;;;6.57;4.32;;;30.50;37.80;;;;;;5053914;28;20382;-87
2021/05/14 09:19:41;;;;;;;4.65;3.80;;;31.70;36.00;;;;;;5023989;28;20138;-85
2021/05/14 09:22:08;;;;;;;7.90;4.15;;;31.70;34.60;;;;;;5051869;28;20134;-85
2021/05/14 09:24:33;;;;;;;7.55;4.13;;;31.30;35.20;;;;;;5053578;28;20017;-86
2021/05/14 09:27:26;;;;;;;5.85;4.10;;;30.60;34.90;;;;;;5052872;28;20045;-85
2021/05/14 09:29:51;;;;;;;12.32;6.30;;;29.70;35.90;;;;;;5045429;28;20017;-85
2021/05/14 09:32:31;;;;;;;6.55;3.90;;;29.30;37.20;;;;;;5047072;28;20055;-86
2021/05/14 09:35:02;;;;;;;7.25;4.55;;;29.20;36.70;;;;;;5014609;28;20030;-84
2021/05/14 09:37:28;;;;;;;6.43;4.53;;;29.20;37.20;;;;;;5020145;28;20082;-85
2021/05/14 09:40:18;;;;;;;6.65;3.58;;;29.90;36.20;;;;;;5021791;28;20129;-84
2021/05/14 09:42:49;;;;;;;9.98;4.43;;;31.90;34.90;;;;;;5005875;28;20042;-85
2021/05/14 09:45:26;;;;;;;8.55;6.13;;;33.60;32.70;;;;;;5019360;28;20092;-86
2021/05/14 09:48:14;;;;;;;7.70;4.68;;;34.90;31.90;;;;;;5014816;28;20037;-86
2021/05/14 09:50:40;;;;;;;9.57;4.55;;;35.90;31.20;;;;;;5005361;28;20163;-86
2021/05/14 09:53:16;;;;;;;9.55;4.90;;;36.70;29.80;;;;;;5011973;28;20030;-87
2021/05/14 09:55:59;;;;;;;5.93;2.65;;;37.70;29.30;;;;;;5011937;28;20107;-88
2021/05/14 09:58:27;;;;;;;8.95;4.13;;;37.60;27.30;;;;;;5012805;28;20026;-86
2021/05/14 10:00:53;;;;;;;7.78;3.65;;;37.00;27.60;;;;;;4998651;28;20042;-87
2021/05/14 10:03:20;;;;;;;7.50;3.95;;;37.10;28.10;;;;;;5017423;28;20022;-87
2021/05/14 10:05:48;;;;;;;7.15;3.22;;;37.80;27.70;;;;;;5044292;28;20426;-86
2021/05/14 10:08:18;;;;;;;5.20;3.15;;;38.70;27.00;;;;;;5062754;28;20099;-87
2021/05/14 10:10:45;;;;;;;5.55;2.80;;;39.20;26.70;;;;;;5057592;28;20347;-86
2021/05/14 10:13:11;;;;;;;;;;;38.40;26.90;;;;;;5040221;28;20025;-85
2021/05/14 10:15:38;;;;;;;5.88;3.25;;;37.10;27.70;;;;;;5058484;28;19904;-87
2021/05/14 10:18:07;;;;;;;10.13;3.75;;;35.40;28.50;;;;;;5058790;28;20100;-86
2021/05/14 10:20:36;;;;;;;4.15;3.75;;;34.20;29.50;;;;;;5035314;28;20126;-86
2021/05/14 10:23:04;;;;;;;8.25;4.68;;;32.90;30.90;;;;;;5041297;28;20382;-87
2021/05/14 10:25:43;;;;;;;6.15;4.20;;;31.30;33.10;;;;;;5056420;28;20043;-86
2021/05/14 10:28:21;;;;;;;9.43;4.70;;;30.70;33.90;;;;;;5057437;28;20112;-86
2021/05/14 10:31:06;;;;;;;6.03;5.15;;;30.10;35.30;;;;;;5067191;28;20028;-85
2021/05/14 10:34:11;;;;;;;7.93;4.03;;;29.90;35.70;;;;;;5060472;28;20025;-87
2021/05/14 10:36:37;;;;;;;5.53;4.95;;;29.70;35.90;;;;;;5031988;28;20067;-86
2021/05/14 10:39:10;;;;;;;7.85;4.45;;;29.40;36.60;;;;;;5038612;28;20029;-83
2021/05/14 10:42:02;;;;;;;5.45;4.30;;;29.20;36.90;;;;;;5038573;28;20063;-88
2021/05/14 10:44:44;;;;;;;8.23;3.25;;;28.70;36.50;;;;;;5056087;28;20052;-85
2021/05/14 10:47:25;;;;;;;7.82;3.67;;;28.30;34.20;;;;;;5038249;28;20082;-86
2021/05/14 10:50:11;;;;;;;5.97;3.22;;;27.70;34.40;;;;;;5049532;28;20059;-86
2021/05/14 10:53:14;;;;;;;7.90;3.88;;;27.30;33.30;;;;;;5054143;28;20021;-86
2021/05/14 10:55:40;;;;;;;4.75;3.55;;;26.10;34.70;;;;;;5056672;28;20032;-87
2021/05/14 10:58:05;;;;;;;6.47;3.90;;;25.70;36.80;;;;;;5056248;28;20025;-86
2021/05/14 11:00:35;;;;;;;5.53;4.30;;;25.60;37.20;;;;;;5055974;28;20025;-88
2021/05/14 11:03:12;;;;;;;5.32;3.33;;;25.40;37.70;;;;;;5037282;28;20108;-87
2021/05/14 11:05:42;;;;;;;7.15;3.42;;;25.30;38.40;;;;;;5044143;28;20482;-85
2021/05/14 11:08:29;;;;;;;6.97;3.85;;;25.10;39.50;;;;;;5055417;28;20067;-85
2021/05/14 11:11:10;;;;;;;9.07;4.22;;;25.00;40.30;;;;;;5056067;28;20048;-84
2021/05/14 11:13:49;;;;;;;4.63;4.00;;;24.90;41.30;;;;;;5056117;28;20414;-87
2021/05/14 11:16:34;;;;;;;5.10;3.90;;;25.10;42.40;;;;;;5040313;28;20385;-86
2021/05/14 11:19:21;;;;;;;5.75;4.57;;;25.10;42.10;;;;;;5043802;28;20028;-87
2021/05/14 11:22:16;;;;;;;6.28;4.70;;;25.20;42.60;;;;;;5055136;28;20122;-85
2021/05/14 11:24:50;;;;;;;5.25;4.22;;;25.40;42.60;;;;;;5037533;28;20021;-84
2021/05/14 11:27:32;;;;;;;7.85;3.72;;;25.40;42.50;;;;;;5056346;28;20040;-85
2021/05/14 11:30:00;;;;;;;8.13;4.65;;;25.00;41.40;;;;;;5040134;28;20089;-85
2021/05/14 11:32:51;;;;;;;8.65;4.72;;;24.70;42.30;;;;;;5038086;28;20078;-85
2021/05/14 11:35:24;;;;;;;4.70;4.13;;;24.50;43.10;;;;;;5045052;28;20505;-85
2021/05/14 11:38:04;;;;;;;9.02;4.97;;;24.40;43.80;;;;;;5036573;28;20094;-86
2021/05/14 11:40:34;;;;;;;7.35;3.83;;;24.60;43.70;;;;;;5040747;28;20025;-84
2021/05/14 11:43:06;;;;;;;7.15;4.75;;;25.00;43.50;;;;;;5027874;28;20026;-85
2021/05/14 11:45:37;;;;;;;5.47;4.05;;;25.10;41.90;;;;;;5056380;28;20062;-87
2021/05/14 11:48:11;;;;;;;4.95;3.25;;;25.00;40.60;;;;;;5046375;28;20035;-84
2021/05/14 11:50:40;;;;;;;4.78;3.33;;;24.80;40.50;;;;;;5069680;28;20021;-84
2021/05/14 11:53:08;;;;;;;6.68;4.18;;;24.60;41.30;;;;;;5067087;28;20025;-83
2021/05/14 11:55:36;;;;;;;8.10;5.22;;;24.40;41.90;;;;;;5058145;28;20032;-83
2021/05/14 11:58:02;;;;;;;4.70;3.50;;;24.50;41.90;;;;;;5054479;28;20013;-84
2021/05/14 12:00:31;;;;;;;7.93;4.18;;;24.50;41.80;;;;;;5054246;28;20051;-85
2021/05/14 12:03:19;;;;;;;7.88;3.95;;;24.40;42.40;;;;;;5036119;28;20132;-85
2021/05/14 12:05:47;;;;;;;4.20;3.55;;;24.40;42.40;;;;;;5027473;28;20078;-85
2021/05/14 12:08:26;;;;;;;5.25;4.07;;;24.40;43.20;;;;;;5055837;28;20021;-87
2021/05/14 12:11:03;;;;;;;6.65;3.55;;;24.60;42.70;;;;;;5062727;28;20483;-85
2021/05/14 12:13:38;;;;;;;8.75;4.32;;;24.80;42.30;;;;;;5044373;28;20034;-86
2021/05/14 12:16:06;;;;;;;9.75;3.53;;;25.00;42.10;;;;;;5021528;28;20044;-85
2021/05/14 12:18:34;;;;;;;4.72;2.65;;;25.00;40.10;;;;;;5054359;28;20501;-84
2021/05/14 12:21:11;;;;;;;6.57;3.15;;;24.80;36.70;;;;;;5055071;28;20044;-85
2021/05/14 12:23:37;;;;;;;11.25;3.85;;;24.80;36.70;;;;;;5054391;28;20076;-84
2021/05/14 12:26:06;;;;;;;7.05;3.10;;;24.70;36.90;;;;;;5035655;28;20103;-84
2021/05/14 12:28:49;;;;;;;7.68;3.28;;;24.60;36.30;;;;;;5036223;28;20437;-84
2021/05/14 12:31:23;;;;;;;4.55;2.60;;;24.50;36.40;;;;;;5055502;28;20025;-83
2021/05/14 12:34:10;;;;;;;6.63;2.85;;;24.50;34.10;;;;;;5038113;28;20066;-86
2021/05/14 12:37:15;;;;;;;;;;;;;;;;;;;;;
2021/05/14 12:44:16;;;;;;;7.20;2.80;;;24.00;35.50;;;;;;5041765;28;20029;-85
2021/05/14 12:47:28;;;;;;;8.00;2.53;;;24.00;36.40;;;;;;4985304;28;20056;-85
2021/05/14 12:50:06;;;;;;;8.32;2.95;;;23.80;37.30;;;;;;4970565;28;20043;-85
2021/05/14 12:52:38;;;;;;;3.95;2.40;;;23.70;37.70;;;;;;4969953;28;20030;-86
2021/05/14 12:55:13;;;;;;;5.57;2.83;;;23.90;37.40;;;;;;4973845;28;20031;-85
2021/05/14 12:58:01;;;;;;;4.43;2.70;;;23.90;37.60;;;;;;4944708;28;20031;-85
2021/05/14 13:00:36;;;;;;;6.13;3.10;;;23.80;38.10;;;;;;4972410;28;20059;-84